Time;durP1;ratioP1;P1;durP2;ratioP2;P2;SDS_P1;SDS_P2;PMS_P1;PMS_P2;Temp;Humidity;BMP_temperature;BMP_pressure;BME280_temperature;BME280_humidity;BME280_pressure;Samples;Min_cycle;Max_cycle;Signal;HPM_P1;HPM_P2
2023/03/08 00:00:20;;;;;;;0.90;0.65;;;6.40;99.90;;;;;;4940730;28;20231;-64
2023/03/08 00:02:48;;;;;;;0.60;0.40;;;6.40;99.90;;;;;;4939492;28;20218;-63
2023/03/08 00:05:16;;;;;;;0.70;0.60;;;6.40;99.90;;;;;;4939512;28;20208;-63
2023/03/08 00:07:45;;;;;;;1.30;0.75;;;6.30;99.90;;;;;;4940965;28;20298;-63
2023/03/08 00:10:13;;;;;;;0.60;0.50;;;6.40;99.90;;;;;;4935719;28;20227;-63
2023/03/08 00:12:41;;;;;;;0.82;0.60;;;6.30;99.90;;;;;;4942345;28;20207;-63
2023/03/08 00:15:10;;;;;;;1.20;0.52;;;6.30;99.90;;;;;;4945890;28;20211;-63
2023/03/08 00:17:39;;;;;;;0.60;0.50;;;6.30;99.90;;;;;;4963024;28;20208;-63
2023/03/08 00:20:09;;;;;;;0.63;0.57;;;6.30;99.90;;;;;;4940227;28;20265;-64
2023/03/08 00:22:37;;;;;;;0.60;0.40;;;6.40;99.90;;;;;;4950599;28;20297;-64
2023/03/08 00:25:08;;;;;;;0.57;0.40;;;6.40;99.90;;;;;;4951355;28;20291;-63
2023/03/08 00:27:37;;;;;;;0.70;0.60;;;6.50;99.90;;;;;;4948255;28;20611;-63
2023/03/08 00:30:06;;;;;;;0.90;0.60;;;6.40;99.90;;;;;;4943025;28;20247;-63
2023/03/08 00:32:34;;;;;;;0.93;0.82;;;6.40;99.90;;;;;;4937440;28;20214;-64
2023/03/08 00:35:02;;;;;;;0.88;0.80;;;6.50;99.90;;;;;;4943432;28;20211;-64
2023/03/08 00:37:30;;;;;;;0.63;0.60;;;6.50;99.90;;;;;;4942433;28;20263;-63
2023/03/08 00:39:58;;;;;;;0.60;0.50;;;6.40;99.90;;;;;;4947087;28;20230;-64
2023/03/08 00:42:27;;;;;;;0.50;0.40;;;6.40;99.90;;;;;;4959012;28;20297;-64
2023/03/08 00:44:55;;;;;;;0.63;0.57;;;6.50;99.90;;;;;;4938627;28;20301;-64
2023/03/08 00:47:22;;;;;;;0.50;0.30;;;6.50;99.90;;;;;;4960247;28;20226;-64
2023/03/08 00:49:50;;;;;;;1.50;0.80;;;6.50;99.90;;;;;;4945038;28;20736;-64
2023/03/08 00:52:18;;;;;;;0.50;0.40;;;6.50;99.90;;;;;;4949521;28;20272;-64
2023/03/08 00:54:46;;;;;;;0.50;0.40;;;6.60;99.90;;;;;;4945615;28;20687;-63
2023/03/08 00:57:15;;;;;;;0.70;0.50;;;6.60;99.90;;;;;;4943212;28;20220;-64
2023/03/08 00:59:44;;;;;;;0.68;0.68;;;6.60;99.90;;;;;;4955979;28;20235;-64
2023/03/08 01:02:12;;;;;;;0.60;0.50;;;6.60;99.90;;;;;;4942199;28;20219;-63
2023/03/08 01:04:40;;;;;;;0.90;0.50;;;6.60;99.90;;;;;;4955900;28;20216;-63
2023/03/08 01:07:08;;;;;;;0.60;0.50;;;6.60;99.90;;;;;;4944794;28;20306;-64
2023/03/08 01:09:35;;;;;;;0.60;0.40;;;6.60;99.90;;;;;;4955510;28;20229;-63
2023/03/08 01:12:04;;;;;;;0.50;0.40;;;6.50;99.90;;;;;;4945389;28;20216;-64
2023/03/08 01:14:31;;;;;;;0.60;0.40;;;6.20;99.90;;;;;;4951801;28;20297;-64
2023/03/08 01:17:01;;;;;;;0.80;0.52;;;6.20;99.90;;;;;;4956011;28;20697;-63
2023/03/08 01:19:28;;;;;;;0.60;0.43;;;6.30;99.90;;;;;;4955240;28;20313;-64
2023/03/08 01:21:56;;;;;;;0.60;0.40;;;6.30;99.90;;;;;;4963092;28;20855;-63
2023/03/08 01:24:24;;;;;;;0.60;0.40;;;6.30;99.90;;;;;;4950729;28;20303;-64
2023/03/08 01:26:54;;;;;;;1.25;0.93;;;6.10;99.90;;;;;;4956851;28;20660;-64
2023/03/08 01:29:22;;;;;;;1.02;0.45;;;6.10;99.90;;;;;;4952598;28;20283;-64
2023/03/08 01:31:50;;;;;;;0.70;0.50;;;6.10;99.90;;;;;;4942760;28;20210;-63
2023/03/08 01:34:19;;;;;;;1.13;1.13;;;6.00;99.90;;;;;;4961592;28;20374;-63
2023/03/08 01:36:47;;;;;;;0.60;0.60;;;6.20;99.90;;;;;;4946402;28;20608;-63
2023/03/08 01:39:15;;;;;;;0.65;0.45;;;6.20;99.90;;;;;;4938280;28;20232;-63
2023/03/08 01:41:43;;;;;;;0.80;0.60;;;6.40;99.90;;;;;;4952091;28;20599;-64
2023/03/08 01:44:15;;;;;;;0.65;0.50;;;6.40;99.90;;;;;;4943381;28;20207;-63
2023/03/08 01:46:43;;;;;;;0.60;0.50;;;6.50;99.90;;;;;;4956607;28;20552;-63
2023/03/08 01:49:15;;;;;;;0.80;0.80;;;6.30;99.90;;;;;;4943103;28;20342;-63
2023/03/08 01:51:49;;;;;;;1.25;0.50;;;6.00;99.90;;;;;;4949078;28;20635;-64
2023/03/08 01:54:22;;;;;;;1.10;0.70;;;5.60;99.90;;;;;;4951786;28;20656;-62
2023/03/08 01:56:53;;;;;;;0.73;0.73;;;5.60;99.90;;;;;;4948896;28;20211;-62
2023/03/08 01:59:23;;;;;;;0.80;0.60;;;5.80;99.90;;;;;;4937599;28;20230;-62
2023/03/08 02:01:50;;;;;;;1.00;0.70;;;6.00;99.90;;;;;;4942290;28;20207;-62
2023/03/08 02:04:19;;;;;;;0.70;0.60;;;6.10;99.90;;;;;;4955302;28;20221;-61
2023/03/08 02:06:48;;;;;;;1.58;0.80;;;6.20;99.90;;;;;;4950646;28;20582;-62
2023/03/08 02:09:16;;;;;;;1.27;1.17;;;6.10;99.90;;;;;;4950676;28;20329;-62
2023/03/08 02:11:44;;;;;;;0.68;0.47;;;6.10;99.90;;;;;;4939359;28;20300;-62
2023/03/08 02:14:12;;;;;;;0.70;0.60;;;6.10;99.90;;;;;;4941403;29;20215;-62
2023/03/08 02:16:40;;;;;;;0.98;0.93;;;6.20;99.90;;;;;;4943876;28;20206;-62
2023/03/08 02:19:14;;;;;;;0.65;0.57;;;6.30;99.90;;;;;;4952681;28;20226;-62
2023/03/08 02:21:42;;;;;;;1.23;0.90;;;6.30;99.90;;;;;;4947763;28;20210;-62
2023/03/08 02:24:20;;;;;;;1.00;0.77;;;6.40;99.90;;;;;;4949127;28;20862;-62
2023/03/08 02:26:49;;;;;;;0.80;0.80;;;6.40;99.90;;;;;;4954627;28;21177;-62
2023/03/08 02:29:17;;;;;;;0.90;0.80;;;6.50;99.90;;;;;;4951356;28;20227;-62
2023/03/08 02:31:45;;;;;;;0.98;0.85;;;6.50;99.90;;;;;;4948157;28;20203;-62
2023/03/08 02:34:13;;;;;;;0.80;0.80;;;6.50;99.90;;;;;;4960522;28;20610;-62
2023/03/08 02:36:41;;;;;;;1.23;1.00;;;6.50;99.90;;;;;;4952159;28;20215;-63
2023/03/08 02:39:09;;;;;;;0.95;0.80;;;6.40;99.90;;;;;;4944113;28;20230;-63
2023/03/08 02:41:38;;;;;;;1.00;0.90;;;6.30;99.90;;;;;;4950277;28;20253;-63
2023/03/08 02:44:06;;;;;;;1.77;1.10;;;6.40;99.90;;;;;;4944544;29;20286;-63
2023/03/08 02:46:34;;;;;;;0.75;0.65;;;6.40;99.90;;;;;;4945800;28;20207;-63
2023/03/08 02:49:02;;;;;;;0.60;0.50;;;6.40;99.90;;;;;;4936422;28;20247;-63
2023/03/08 02:51:30;;;;;;;1.23;1.00;;;6.40;99.90;;;;;;4948653;28;20232;-62
2023/03/08 02:53:59;;;;;;;1.92;0.80;;;6.50;99.90;;;;;;4964177;28;20218;-63
2023/03/08 02:56:27;;;;;;;1.95;1.15;;;6.40;99.90;;;;;;4940373;28;20246;-63
2023/03/08 02:58:56;;;;;;;1.73;0.95;;;6.40;99.90;;;;;;4951158;28;20229;-62
2023/03/08 03:01:24;;;;;;;1.23;0.60;;;6.40;99.90;;;;;;4955864;28;20220;-62
2023/03/08 03:03:53;;;;;;;1.02;0.93;;;6.40;99.90;;;;;;4955320;28;20659;-62
2023/03/08 03:06:22;;;;;;;1.10;1.00;;;6.50;99.90;;;;;;4948896;28;20252;-62
2023/03/08 03:08:50;;;;;;;1.55;0.88;;;6.50;99.90;;;;;;4953816;28;20243;-61
2023/03/08 03:11:19;;;;;;;0.95;0.65;;;6.50;99.90;;;;;;4937336;28;20213;-62
2023/03/08 03:13:47;;;;;;;0.82;0.63;;;6.60;99.90;;;;;;4942549;28;20214;-62
2023/03/08 03:16:16;;;;;;;1.55;1.45;;;6.60;99.90;;;;;;4956467;28;20224;-62
2023/03/08 03:18:44;;;;;;;1.38;0.75;;;6.60;99.90;;;;;;4937037;28;20590;-62
2023/03/08 03:21:13;;;;;;;0.82;0.82;;;6.60;99.90;;;;;;4937971;28;20270;-62
2023/03/08 03:23:41;;;;;;;1.33;1.23;;;6.60;99.90;;;;;;4940239;28;20214;-61
2023/03/08 03:26:12;;;;;;;0.80;0.60;;;6.50;99.90;;;;;;4952882;28;20684;-62
2023/03/08 03:28:40;;;;;;;0.85;0.68;;;6.60;99.90;;;;;;4946752;28;20230;-62
2023/03/08 03:31:09;;;;;;;2.28;1.20;;;6.50;99.90;;;;;;4945050;28;20623;-61
2023/03/08 03:33:39;;;;;;;1.60;0.98;;;6.50;99.90;;;;;;4948306;28;20235;-62
2023/03/08 03:36:08;;;;;;;1.02;0.82;;;6.60;99.90;;;;;;4954436;28;20230;-62
2023/03/08 03:38:36;;;;;;;1.20;1.10;;;6.50;99.90;;;;;;4953170;28;20232;-62
2023/03/08 03:41:06;;;;;;;1.27;0.90;;;6.50;99.90;;;;;;4953084;28;20224;-61
2023/03/08 03:43:35;;;;;;;1.10;1.00;;;6.60;99.90;;;;;;4959284;28;20297;-62
2023/03/08 03:46:05;;;;;;;1.20;1.00;;;6.60;99.90;;;;;;4936634;28;20214;-62
2023/03/08 03:48:34;;;;;;;1.20;1.02;;;6.40;99.90;;;;;;4955559;28;20662;-62
2023/03/08 03:51:05;;;;;;;1.13;0.85;;;6.10;99.90;;;;;;4948464;28;20738;-61
2023/03/08 03:53:35;;;;;;;1.27;1.17;;;6.20;99.90;;;;;;4945322;28;20217;-62
2023/03/08 03:56:04;;;;;;;1.13;0.85;;;6.20;99.90;;;;;;4953218;28;20217;-62
2023/03/08 03:58:33;;;;;;;0.93;0.70;;;6.30;99.90;;;;;;4944053;28;20226;-62
2023/03/08 04:01:01;;;;;;;0.80;0.60;;;6.30;99.90;;;;;;4954643;28;20223;-62
2023/03/08 04:03:28;;;;;;;0.70;0.70;;;6.20;99.90;;;;;;4948386;28;20210;-62
2023/03/08 04:06:07;;;;;;;1.13;0.75;;;6.30;99.90;;;;;;4957572;28;20213;-62
2023/03/08 04:08:40;;;;;;;2.70;1.13;;;6.40;99.90;;;;;;4952821;28;20226;-62
2023/03/08 04:11:09;;;;;;;0.85;0.82;;;6.40;99.90;;;;;;4949082;28;20289;-62
2023/03/08 04:13:37;;;;;;;1.10;1.00;;;6.40;99.90;;;;;;4942600;28;20233;-62
2023/03/08 04:16:11;;;;;;;1.27;0.73;;;6.40;99.90;;;;;;4943725;28;20221;-62
2023/03/08 04:18:40;;;;;;;1.17;1.08;;;6.50;99.90;;;;;;4946490;28;20313;-61
2023/03/08 04:21:09;;;;;;;1.23;1.00;;;6.60;99.90;;;;;;4951006;28;20708;-62
2023/03/08 04:23:39;;;;;;;1.42;1.33;;;6.60;99.90;;;;;;4951261;28;20221;-63
2023/03/08 04:26:08;;;;;;;1.50;1.02;;;6.70;99.90;;;;;;4943206;28;20290;-62
2023/03/08 04:28:36;;;;;;;0.70;0.60;;;6.70;99.90;;;;;;4955212;28;20250;-62
2023/03/08 04:31:12;;;;;;;3.10;1.95;;;6.60;99.90;;;;;;4943659;28;20209;-62
2023/03/08 04:33:40;;;;;;;1.30;0.95;;;6.60;99.90;;;;;;4953113;28;20207;-62
2023/03/08 04:36:10;;;;;;;1.60;0.98;;;6.50;99.90;;;;;;4942099;28;20296;-62
2023/03/08 04:38:38;;;;;;;1.30;0.80;;;6.30;99.90;;;;;;4941055;28;20226;-62
2023/03/08 04:41:10;;;;;;;1.60;1.25;;;6.00;99.90;;;;;;4943906;28;20699;-62
2023/03/08 04:43:39;;;;;;;1.85;1.10;;;5.80;99.90;;;;;;4945698;28;20268;-63
2023/03/08 04:46:08;;;;;;;0.90;0.75;;;5.80;99.90;;;;;;4936056;28;20231;-62
2023/03/08 04:48:36;;;;;;;1.90;0.93;;;5.80;99.90;;;;;;4944897;28;20244;-62
2023/03/08 04:51:06;;;;;;;1.00;0.95;;;5.60;99.90;;;;;;4956926;28;20312;-62
2023/03/08 04:53:37;;;;;;;2.00;0.80;;;5.60;99.90;;;;;;4943388;28;20218;-62
2023/03/08 04:56:06;;;;;;;1.52;1.35;;;5.60;99.90;;;;;;4946247;28;20206;-63
2023/03/08 04:58:35;;;;;;;1.60;1.48;;;5.70;99.90;;;;;;4938411;29;20700;-62
2023/03/08 05:01:09;;;;;;;0.70;0.70;;;5.90;99.90;;;;;;4946002;28;20237;-62
2023/03/08 05:03:37;;;;;;;1.13;0.93;;;5.90;99.90;;;;;;4938875;28;20211;-62
2023/03/08 05:06:05;;;;;;;1.42;0.93;;;5.90;99.90;;;;;;4946937;28;20643;-62
2023/03/08 05:08:35;;;;;;;1.00;0.68;;;6.00;99.90;;;;;;4942512;28;20252;-62
2023/03/08 05:11:04;;;;;;;1.35;1.15;;;6.10;99.90;;;;;;4942839;28;20224;-61
2023/03/08 05:13:34;;;;;;;2.42;1.25;;;6.00;99.90;;;;;;4952716;28;20219;-61
2023/03/08 05:16:02;;;;;;;4.75;2.10;;;5.70;99.90;;;;;;4950799;28;20596;-62
2023/03/08 05:18:30;;;;;;;2.20;1.88;;;5.60;99.90;;;;;;4971096;28;20320;-62
2023/03/08 05:20:59;;;;;;;1.83;1.27;;;5.50;99.90;;;;;;4951400;28;20214;-62
2023/03/08 05:23:28;;;;;;;1.58;1.48;;;5.50;99.90;;;;;;4947026;28;20202;-62
2023/03/08 05:25:59;;;;;;;3.10;1.83;;;5.30;99.90;;;;;;4955459;28;20207;-62
2023/03/08 05:28:28;;;;;;;2.25;1.95;;;5.30;99.90;;;;;;4949472;28;20251;-62
2023/03/08 05:31:03;;;;;;;2.35;2.15;;;5.00;99.90;;;;;;4941393;28;20226;-63
2023/03/08 05:33:31;;;;;;;3.83;2.15;;;5.20;99.90;;;;;;4954046;28;20204;-62
2023/03/08 05:35:59;;;;;;;4.57;2.88;;;4.80;99.90;;;;;;4955545;28;20587;-62
2023/03/08 05:38:28;;;;;;;5.07;1.75;;;4.50;99.90;;;;;;4966468;28;20230;-62
2023/03/08 05:41:00;;;;;;;1.60;1.20;;;4.40;99.90;;;;;;4944808;28;20282;-61
2023/03/08 05:43:27;;;;;;;2.47;2.25;;;4.50;99.90;;;;;;4951878;28;20562;-63
2023/03/08 05:45:57;;;;;;;1.52;1.42;;;4.60;99.90;;;;;;4944653;28;20214;-62
2023/03/08 05:48:26;;;;;;;2.63;2.10;;;4.50;99.90;;;;;;4967374;28;20337;-64
2023/03/08 05:50:54;;;;;;;5.03;2.60;;;4.40;99.90;;;;;;4949517;28;20664;-61
2023/03/08 05:53:22;;;;;;;5.88;2.63;;;4.20;99.90;;;;;;4943517;28;20803;-61
2023/03/08 05:55:50;;;;;;;2.90;2.60;;;4.00;99.90;;;;;;4943082;28;20217;-61
2023/03/08 05:58:19;;;;;;;2.30;1.70;;;3.90;99.90;;;;;;4948480;28;20207;-62
2023/03/08 06:00:47;;;;;;;3.15;2.45;;;3.80;99.90;;;;;;4945026;28;20211;-61
2023/03/08 06:03:15;;;;;;;1.90;1.50;;;3.70;99.90;;;;;;4957109;28;20661;-62
2023/03/08 06:05:43;;;;;;;2.72;2.53;;;3.60;99.90;;;;;;4940646;28;20236;-62
2023/03/08 06:08:11;;;;;;;3.30;2.17;;;3.60;99.90;;;;;;4942011;28;20213;-63
2023/03/08 06:10:39;;;;;;;4.47;3.58;;;3.70;99.90;;;;;;4938670;28;20339;-62
2023/03/08 06:13:06;;;;;;;2.70;2.10;;;3.50;99.90;;;;;;4935610;28;20214;-62
2023/03/08 06:15:35;;;;;;;2.45;2.15;;;3.50;99.90;;;;;;4948201;28;20207;-62
2023/03/08 06:18:03;;;;;;;3.25;2.80;;;3.40;99.90;;;;;;4940526;29;20231;-62
2023/03/08 06:20:31;;;;;;;3.45;2.28;;;3.40;99.90;;;;;;4942253;28;20216;-62
2023/03/08 06:22:59;;;;;;;5.05;2.53;;;3.30;99.90;;;;;;4944384;28;20259;-62
2023/03/08 06:25:27;;;;;;;4.28;3.00;;;3.30;99.90;;;;;;4944606;28;20289;-62
2023/03/08 06:27:55;;;;;;;2.80;2.50;;;3.30;99.90;;;;;;4936018;28;20212;-62
2023/03/08 06:30:23;;;;;;;3.35;2.45;;;3.20;99.90;;;;;;4946073;28;20249;-62
2023/03/08 06:32:52;;;;;;;5.70;2.20;;;3.20;99.90;;;;;;4936281;28;20702;-62
2023/03/08 06:35:20;;;;;;;2.88;2.50;;;3.10;99.90;;;;;;4950353;28;20208;-63
2023/03/08 06:37:48;;;;;;;3.00;2.78;;;3.20;99.90;;;;;;4940624;28;20212;-63
2023/03/08 06:40:16;;;;;;;3.03;2.17;;;3.10;99.90;;;;;;4959691;28;20227;-62
2023/03/08 06:42:44;;;;;;;3.97;1.92;;;3.10;99.90;;;;;;4945682;28;20267;-62
2023/03/08 06:45:12;;;;;;;2.05;1.85;;;3.10;99.90;;;;;;4936020;28;20297;-62
2023/03/08 06:47:40;;;;;;;2.58;2.13;;;3.10;99.90;;;;;;4942697;28;20304;-63
2023/03/08 06:50:11;;;;;;;3.67;2.72;;;3.10;99.90;;;;;;4940259;28;20220;-63
2023/03/08 06:52:39;;;;;;;2.47;2.28;;;3.10;99.90;;;;;;4940527;28;20263;-62
2023/03/08 06:55:08;;;;;;;2.75;2.42;;;3.20;99.90;;;;;;4951435;28;20203;-62
2023/03/08 06:57:36;;;;;;;4.35;2.60;;;3.20;99.90;;;;;;4951972;28;20212;-63
2023/03/08 07:00:04;;;;;;;2.47;2.28;;;3.20;99.90;;;;;;4950656;28;20712;-66
2023/03/08 07:02:32;;;;;;;1.98;1.75;;;3.20;99.90;;;;;;4950540;28;20218;-65
2023/03/08 07:05:00;;;;;;;2.55;2.35;;;3.20;99.90;;;;;;4945936;28;20288;-63
2023/03/08 07:07:29;;;;;;;4.00;2.50;;;3.20;99.90;;;;;;4946514;28;20289;-62
2023/03/08 07:09:57;;;;;;;3.38;2.38;;;3.20;99.90;;;;;;4951508;28;20777;-63
2023/03/08 07:12:25;;;;;;;4.57;2.67;;;3.10;99.90;;;;;;4972669;28;20214;-62
2023/03/08 07:14:53;;;;;;;2.38;2.17;;;3.10;99.90;;;;;;4953904;28;20213;-63
2023/03/08 07:17:21;;;;;;;3.22;2.38;;;3.10;99.90;;;;;;4968807;28;20203;-62
2023/03/08 07:19:49;;;;;;;2.63;1.92;;;3.10;99.90;;;;;;4954334;28;20229;-62
2023/03/08 07:22:17;;;;;;;4.05;3.70;;;3.10;99.90;;;;;;4953760;29;20284;-62
2023/03/08 07:24:48;;;;;;;2.83;2.50;;;3.00;99.90;;;;;;4953338;29;20218;-62
2023/03/08 07:27:16;;;;;;;4.20;2.72;;;3.00;99.90;;;;;;4953549;28;20583;-62
2023/03/08 07:29:44;;;;;;;2.25;2.05;;;2.90;99.90;;;;;;4952639;29;20656;-62
2023/03/08 07:32:12;;;;;;;2.58;1.92;;;2.90;99.90;;;;;;4953423;29;20229;-61
2023/03/08 07:34:41;;;;;;;3.53;2.78;;;2.80;99.90;;;;;;4953424;28;20220;-62
2023/03/08 07:37:12;;;;;;;2.80;2.10;;;2.70;99.90;;;;;;4953362;29;20643;-61
2023/03/08 07:39:39;;;;;;;3.35;2.58;;;2.70;99.90;;;;;;4952783;28;20260;-62
2023/03/08 07:42:09;;;;;;;1.45;1.35;;;2.60;99.90;;;;;;4953244;29;20206;-62
2023/03/08 07:44:37;;;;;;;2.55;2.17;;;2.60;99.90;;;;;;4953223;29;20231;-61
2023/03/08 07:47:07;;;;;;;3.22;2.92;;;2.60;99.90;;;;;;4957356;28;20294;-62
2023/03/08 07:49:35;;;;;;;5.85;2.78;;;2.60;99.90;;;;;;4963515;28;20228;-62
2023/03/08 07:52:04;;;;;;;2.60;2.30;;;2.50;99.90;;;;;;4953015;29;20234;-62
2023/03/08 07:54:32;;;;;;;3.63;2.45;;;2.40;99.90;;;;;;4953042;29;20213;-61
2023/03/08 07:57:00;;;;;;;5.50;2.63;;;2.40;99.90;;;;;;4952822;29;20249;-62
2023/03/08 07:59:30;;;;;;;4.90;2.88;;;2.40;99.90;;;;;;4952847;28;20233;-62
2023/03/08 08:01:57;;;;;;;3.47;2.38;;;2.40;99.90;;;;;;4944995;29;20213;-62
2023/03/08 08:04:25;;;;;;;5.22;3.72;;;2.30;99.90;;;;;;4952954;29;20238;-62
2023/03/08 08:06:53;;;;;;;2.30;2.10;;;2.20;99.90;;;;;;4952623;29;20203;-62
2023/03/08 08:09:21;;;;;;;1.95;1.67;;;2.30;99.90;;;;;;4952620;28;20714;-61
2023/03/08 08:11:49;;;;;;;3.03;2.70;;;2.20;99.90;;;;;;4952321;29;20228;-62
2023/03/08 08:14:17;;;;;;;2.70;2.22;;;2.20;99.90;;;;;;4952952;28;20203;-62
2023/03/08 08:16:46;;;;;;;2.92;2.25;;;2.10;99.90;;;;;;4952398;28;20642;-62
2023/03/08 08:19:14;;;;;;;3.22;2.58;;;2.10;99.90;;;;;;4958392;28;20698;-62
2023/03/08 08:21:42;;;;;;;3.92;2.25;;;2.00;99.90;;;;;;4954300;28;20226;-62
2023/03/08 08:24:10;;;;;;;2.50;2.20;;;2.00;99.90;;;;;;4952572;29;20204;-62
2023/03/08 08:26:37;;;;;;;3.20;2.72;;;2.00;99.90;;;;;;4952569;28;20320;-61
2023/03/08 08:29:05;;;;;;;3.33;2.53;;;2.00;99.90;;;;;;4952213;28;20247;-61
2023/03/08 08:31:33;;;;;;;4.43;3.40;;;1.90;99.90;;;;;;4952556;28;20690;-62
2023/03/08 08:34:03;;;;;;;3.42;2.15;;;1.80;99.90;;;;;;4952522;29;20299;-62
2023/03/08 08:36:31;;;;;;;2.92;2.65;;;1.90;99.90;;;;;;4952415;29;20213;-62
2023/03/08 08:38:58;;;;;;;3.25;2.53;;;1.90;99.90;;;;;;4952326;28;20233;-62
2023/03/08 08:41:26;;;;;;;2.95;2.47;;;1.90;99.90;;;;;;4952681;29;20295;-61
2023/03/08 08:43:57;;;;;;;4.80;4.30;;;2.00;99.90;;;;;;4952413;28;20209;-61
2023/03/08 08:46:29;;;;;;;4.53;2.92;;;2.00;99.90;;;;;;4952139;28;20263;-61
2023/03/08 08:48:58;;;;;;;2.92;2.70;;;2.10;99.90;;;;;;4955731;28;20597;-62
2023/03/08 08:51:28;;;;;;;3.25;2.55;;;2.10;99.90;;;;;;4956298;28;20272;-62
2023/03/08 08:53:56;;;;;;;5.60;2.70;;;2.10;99.90;;;;;;4952576;28;20598;-62
2023/03/08 08:56:26;;;;;;;4.00;3.60;;;2.20;99.90;;;;;;4952012;28;20297;-62
2023/03/08 08:58:55;;;;;;;5.20;3.85;;;2.30;99.90;;;;;;4954259;28;20615;-62
2023/03/08 09:01:25;;;;;;;4.35;3.53;;;2.30;99.90;;;;;;4956052;28;20217;-62
2023/03/08 09:03:53;;;;;;;4.05;3.22;;;2.30;99.90;;;;;;4956058;28;20294;-62
2023/03/08 09:06:23;;;;;;;4.43;3.75;;;2.50;99.90;;;;;;4956005;29;20262;-62
2023/03/08 09:08:53;;;;;;;6.53;4.05;;;2.60;99.90;;;;;;4955103;28;20318;-63
2023/03/08 09:11:22;;;;;;;5.88;4.07;;;2.60;99.90;;;;;;4956118;29;20264;-61
2023/03/08 09:13:49;;;;;;;3.17;2.80;;;2.70;99.90;;;;;;4956060;29;20680;-62
2023/03/08 09:16:19;;;;;;;2.35;2.10;;;2.80;99.90;;;;;;4955866;28;20215;-62
2023/03/08 09:18:47;;;;;;;5.00;3.13;;;2.80;99.90;;;;;;4957066;28;20227;-62
2023/03/08 09:21:16;;;;;;;3.70;2.40;;;2.80;99.90;;;;;;4961176;28;20231;-62
2023/03/08 09:23:44;;;;;;;3.72;2.45;;;2.90;99.90;;;;;;4955766;29;20219;-62
2023/03/08 09:26:13;;;;;;;5.60;2.75;;;2.80;99.90;;;;;;4955813;29;20214;-63
2023/03/08 09:28:41;;;;;;;2.45;2.05;;;2.90;99.90;;;;;;4955011;28;20277;-62
2023/03/08 09:31:13;;;;;;;4.70;2.75;;;2.80;99.90;;;;;;5002959;23;20620;-66
2023/03/08 09:33:43;;;;;;;3.60;2.83;;;2.80;99.90;;;;;;4984266;28;20203;-66
2023/03/08 09:36:11;;;;;;;3.25;2.67;;;2.80;99.90;;;;;;4986546;28;20307;-67
2023/03/08 09:38:39;;;;;;;3.65;2.97;;;2.80;99.90;;;;;;4984758;28;20278;-66
2023/03/08 09:41:20;;;;;;;5.93;2.75;;;2.90;99.90;;;;;;4965305;28;20238;-67
2023/03/08 09:43:58;;;;;;;4.72;2.65;;;2.90;99.90;;;;;;4965497;28;20205;-67
2023/03/08 09:46:32;;;;;;;2.00;1.67;;;3.00;99.90;;;;;;4959295;28;20214;-67
2023/03/08 09:49:02;;;;;;;3.88;2.90;;;3.00;99.90;;;;;;4947605;29;20212;-67
2023/03/08 09:51:35;;;;;;;3.85;2.38;;;2.90;99.90;;;;;;4963134;28;20205;-66
2023/03/08 09:54:07;;;;;;;3.45;2.58;;;3.00;99.90;;;;;;4963442;28;20215;-67
2023/03/08 09:56:40;;;;;;;5.28;3.45;;;2.90;99.90;;;;;;4963536;28;20213;-66
2023/03/08 09:59:12;;;;;;;4.32;3.92;;;3.00;99.90;;;;;;4966196;28;20215;-67
2023/03/08 10:01:50;;;;;;;3.75;3.15;;;3.00;99.90;;;;;;4964806;28;20232;-66
2023/03/08 10:04:33;;;;;;;2.72;2.17;;;3.10;99.90;;;;;;4963239;28;20297;-67
2023/03/08 10:07:21;;;;;;;3.28;2.97;;;3.10;99.90;;;;;;4955797;28;20795;-67
2023/03/08 10:09:58;;;;;;;4.22;3.65;;;3.20;99.90;;;;;;4964983;28;20353;-66
2023/03/08 10:12:35;;;;;;;4.45;2.72;;;3.20;99.90;;;;;;4966030;28;20767;-67
2023/03/08 10:15:08;;;;;;;5.65;2.78;;;3.20;99.90;;;;;;4955731;28;20660;-66
2023/03/08 10:17:44;;;;;;;4.55;3.38;;;3.20;99.90;;;;;;4954675;28;20213;-67
2023/03/08 10:20:19;;;;;;;3.95;2.85;;;3.20;99.90;;;;;;4960265;28;20308;-67
2023/03/08 10:22:53;;;;;;;3.60;3.30;;;3.30;99.90;;;;;;4964107;28;20194;-67
2023/03/08 10:25:25;;;;;;;3.40;2.50;;;3.20;99.90;;;;;;4962650;28;20206;-67
2023/03/08 10:27:57;;;;;;;3.88;3.05;;;3.10;99.90;;;;;;4965434;28;20293;-67
2023/03/08 10:30:27;;;;;;;4.13;2.20;;;3.10;99.90;;;;;;4965739;28;20235;-67
2023/03/08 10:32:59;;;;;;;3.50;2.65;;;3.10;99.90;;;;;;4962323;28;20775;-67
2023/03/08 10:35:35;;;;;;;2.92;2.60;;;3.10;99.90;;;;;;4962650;28;20227;-67
2023/03/08 10:38:03;;;;;;;2.72;2.17;;;3.10;99.90;;;;;;4962649;28;20239;-67
2023/03/08 10:40:31;;;;;;;3.08;2.70;;;3.10;99.90;;;;;;4962387;28;20225;-67
2023/03/08 10:43:04;;;;;;;4.35;3.65;;;3.10;99.90;;;;;;4965492;28;20203;-67
2023/03/08 10:45:32;;;;;;;4.40;2.67;;;3.00;99.90;;;;;;4958498;28;20284;-67
2023/03/08 10:48:02;;;;;;;3.85;2.70;;;3.10;99.90;;;;;;4952743;28;20685;-67
2023/03/08 10:50:34;;;;;;;3.53;2.33;;;3.10;99.90;;;;;;4950657;28;20290;-67
2023/03/08 10:53:10;;;;;;;3.22;2.30;;;3.10;99.90;;;;;;4946603;28;20225;-67
2023/03/08 10:55:44;;;;;;;3.40;3.10;;;3.10;99.90;;;;;;4954099;28;20693;-67
2023/03/08 10:58:29;;;;;;;3.25;2.42;;;3.10;99.90;;;;;;4954146;28;20593;-67
2023/03/08 11:00:59;;;;;;;2.20;2.00;;;3.10;99.90;;;;;;4954234;28;20800;-67
2023/03/08 11:03:28;;;;;;;2.35;2.15;;;3.00;99.90;;;;;;4953984;28;20271;-67
2023/03/08 11:05:58;;;;;;;3.28;2.65;;;3.10;99.90;;;;;;4953720;28;20263;-67
2023/03/08 11:08:29;;;;;;;1.95;1.85;;;3.00;99.90;;;;;;4954312;28;20268;-66
2023/03/08 11:11:07;;;;;;;2.45;2.00;;;3.00;99.90;;;;;;4953685;28;20230;-67
2023/03/08 11:13:40;;;;;;;3.72;2.92;;;3.00;99.90;;;;;;4953553;28;20289;-67
2023/03/08 11:16:24;;;;;;;3.17;1.95;;;2.90;99.90;;;;;;4954130;28;20211;-67
2023/03/08 11:19:02;;;;;;;2.65;2.30;;;2.90;99.90;;;;;;4961581;28;20243;-67
2023/03/08 11:21:39;;;;;;;1.90;1.60;;;2.80;99.90;;;;;;4960892;28;20204;-67
2023/03/08 11:24:24;;;;;;;4.05;2.72;;;2.80;99.90;;;;;;4955247;28;20738;-67
2023/03/08 11:27:05;;;;;;;3.00;2.50;;;2.90;99.90;;;;;;4964389;28;20214;-68
2023/03/08 11:29:46;;;;;;;3.33;3.00;;;3.00;99.90;;;;;;4964338;28;20229;-67
2023/03/08 11:32:30;;;;;;;3.42;2.95;;;3.00;99.90;;;;;;4961146;28;20268;-67
2023/03/08 11:35:09;;;;;;;2.50;1.98;;;3.10;99.90;;;;;;4953814;28;20221;-68
2023/03/08 11:37:43;;;;;;;3.83;2.20;;;3.20;99.90;;;;;;4962036;28;20207;-67
2023/03/08 11:40:24;;;;;;;2.45;2.25;;;3.20;99.90;;;;;;4964574;28;20239;-67
2023/03/08 11:43:18;;;;;;;2.72;2.47;;;3.20;99.90;;;;;;4961445;28;20577;-67
2023/03/08 11:45:53;;;;;;;3.47;2.95;;;3.30;99.90;;;;;;4963125;28;20310;-68
2023/03/08 11:48:35;;;;;;;3.47;2.13;;;3.20;99.90;;;;;;4953553;28;20203;-68
2023/03/08 11:51:09;;;;;;;2.25;2.08;;;3.30;99.90;;;;;;4953989;28;20231;-68
2023/03/08 11:53:50;;;;;;;2.42;2.22;;;3.30;99.90;;;;;;4961107;28;20223;-68
2023/03/08 11:56:34;;;;;;;2.75;2.47;;;3.40;99.90;;;;;;4964479;28;20203;-68
2023/03/08 11:59:06;;;;;;;2.65;2.00;;;3.30;99.90;;;;;;4953560;28;20292;-67
2023/03/08 12:01:43;;;;;;;4.78;3.33;;;3.20;99.90;;;;;;4960819;28;20211;-69
2023/03/08 12:04:15;;;;;;;2.95;2.65;;;3.10;99.90;;;;;;4964061;28;20204;-68
2023/03/08 12:06:45;;;;;;;2.10;1.90;;;3.10;99.90;;;;;;4963113;28;20685;-68
2023/03/08 12:09:21;;;;;;;2.40;2.20;;;3.10;99.90;;;;;;4960846;28;20643;-68
2023/03/08 12:11:54;;;;;;;3.60;2.70;;;3.10;99.90;;;;;;4962637;28;20258;-68
2023/03/08 12:14:27;;;;;;;2.63;2.30;;;3.00;99.90;;;;;;4963803;28;20226;-68
2023/03/08 12:17:01;;;;;;;2.78;2.10;;;3.00;99.90;;;;;;4956596;28;20211;-68
2023/03/08 12:19:36;;;;;;;2.60;2.40;;;3.00;99.90;;;;;;4952521;28;20225;-66
2023/03/08 12:22:20;;;;;;;3.10;2.35;;;3.00;99.90;;;;;;4953217;28;20654;-68
2023/03/08 12:24:55;;;;;;;2.63;2.42;;;3.10;99.90;;;;;;4962304;28;20577;-68
2023/03/08 12:27:30;;;;;;;4.85;1.80;;;3.10;99.90;;;;;;4964132;28;20749;-68
2023/03/08 12:30:04;;;;;;;4.75;2.88;;;3.20;99.90;;;;;;4960380;28;20636;-69
2023/03/08 12:32:37;;;;;;;3.40;2.63;;;3.20;99.90;;;;;;4960595;28;20274;-68
2023/03/08 12:35:23;;;;;;;3.22;2.95;;;3.20;99.90;;;;;;4964792;28;20776;-68
2023/03/08 12:37:56;;;;;;;2.95;2.35;;;3.20;99.90;;;;;;4966447;28;20221;-68
2023/03/08 12:40:39;;;;;;;2.83;2.10;;;3.30;99.90;;;;;;4967899;28;20235;-68
2023/03/08 12:43:11;;;;;;;3.90;3.00;;;3.40;99.90;;;;;;4957381;28;20629;-68
2023/03/08 12:45:40;;;;;;;2.60;2.40;;;3.30;99.90;;;;;;4964887;28;20219;-68
2023/03/08 12:48:19;;;;;;;12.00;9.20;;;3.40;99.90;;;;;;4958463;28;20705;-68
2023/03/08 12:50:57;;;;;;;5.05;4.43;;;3.30;99.90;;;;;;4965576;28;20270;-68
2023/03/08 12:53:34;;;;;;;3.10;2.80;;;3.30;99.90;;;;;;4967694;28;20224;-68
2023/03/08 12:56:05;;;;;;;5.93;3.65;;;3.30;99.90;;;;;;4964191;28;20662;-68
2023/03/08 12:58:37;;;;;;;5.60;3.63;;;3.30;99.90;;;;;;4964204;28;20203;-68
2023/03/08 13:01:07;;;;;;;2.55;2.35;;;3.30;99.90;;;;;;4964285;28;20648;-68
2023/03/08 13:03:41;;;;;;;4.70;2.95;;;3.40;99.90;;;;;;4964259;28;20583;-68
2023/03/08 13:06:42;;;;;;;2.22;2.03;;;3.50;99.90;;;;;;4964262;28;20548;-68
2023/03/08 13:09:21;;;;;;;10.20;5.63;;;3.60;99.90;;;;;;4963833;28;20212;-68
2023/03/08 13:11:54;;;;;;;5.20;4.70;;;3.70;99.90;;;;;;4965655;28;20626;-68
2023/03/08 13:14:26;;;;;;;4.55;3.25;;;3.80;99.90;;;;;;4967426;28;20221;-68